createdAt,value
2018-06-09T00:00:05.957Z,939.55
2018-06-09T00:01:06.063Z,939.59
2018-06-09T00:02:05.997Z,939.57
2018-06-09T00:03:05.983Z,939.61
2018-06-09T00:04:06.000Z,939.59
2018-06-09T00:05:06.035Z,939.57
2018-06-09T00:06:06.147Z,939.58
2018-06-09T00:07:06.064Z,939.58
2018-06-09T00:08:06.067Z,939.63
2018-06-09T00:09:06.060Z,939.63
2018-06-09T00:10:06.093Z,939.65
2018-06-09T00:11:06.186Z,939.66
2018-06-09T00:12:06.117Z,939.67
2018-06-09T00:13:06.105Z,939.66
2018-06-09T00:14:06.148Z,939.68
2018-06-09T00:15:06.127Z,939.65
2018-06-09T00:16:06.143Z,939.69
2018-06-09T00:17:06.332Z,939.68
2018-06-09T00:18:06.176Z,939.70
2018-06-09T00:19:06.191Z,939.71
2018-06-09T00:20:06.189Z,939.72
2018-06-09T00:21:06.219Z,939.76
2018-06-09T00:22:06.364Z,939.77
2018-06-09T00:23:06.249Z,939.76
2018-06-09T00:24:06.250Z,939.76
2018-06-09T00:25:06.246Z,939.77
2018-06-09T00:26:06.262Z,939.77
2018-06-09T00:27:06.426Z,939.78
2018-06-09T00:28:06.277Z,939.76
2018-06-09T00:29:06.294Z,939.79
2018-06-09T00:30:06.311Z,939.74
2018-06-09T00:31:06.320Z,939.74
2018-06-09T00:32:06.507Z,939.76
2018-06-09T00:33:06.355Z,939.81
2018-06-09T00:34:06.367Z,939.79
2018-06-09T00:35:06.399Z,939.83
2018-06-09T00:36:06.380Z,939.88
2018-06-09T00:37:06.549Z,939.88
2018-06-09T00:38:06.405Z,939.91
2018-06-09T00:39:06.437Z,939.93
2018-06-09T00:40:06.434Z,939.94
2018-06-09T00:41:06.454Z,939.97
2018-06-09T00:42:06.549Z,939.97
2018-06-09T00:43:06.460Z,939.98
2018-06-09T00:44:06.506Z,939.98
2018-06-09T00:45:06.650Z,939.99
2018-06-09T00:46:06.705Z,939.99
2018-06-09T00:47:06.829Z,940.01
2018-06-09T00:48:06.601Z,940.00
2018-06-09T00:49:06.536Z,940.03
2018-06-09T00:50:06.553Z,940.00
2018-06-09T00:51:06.563Z,940.03
2018-06-09T00:52:06.726Z,940.02
2018-06-09T00:53:06.586Z,940.01
2018-06-09T00:54:06.597Z,940.00
2018-06-09T00:55:06.615Z,940.03
2018-06-09T00:56:06.619Z,940.09
2018-06-09T00:57:06.757Z,940.11
2018-06-09T00:58:06.668Z,940.11
2018-06-09T00:59:06.669Z,940.11
2018-06-09T01:00:06.670Z,940.11
2018-06-09T01:01:06.681Z,940.08
2018-06-09T01:02:06.846Z,940.11
2018-06-09T01:03:06.729Z,940.14
2018-06-09T01:04:06.722Z,940.02
2018-06-09T01:05:06.730Z,940.01
2018-06-09T01:06:06.766Z,940.02
2018-06-09T01:07:06.902Z,939.98
2018-06-09T01:08:06.761Z,940.01
2018-06-09T01:09:06.800Z,940.00
2018-06-09T01:10:06.786Z,940.03
2018-06-09T01:11:06.829Z,939.98
2018-06-09T01:12:06.938Z,940.00
2018-06-09T01:13:06.819Z,939.99
2018-06-09T01:14:06.864Z,940.01
2018-06-09T01:15:06.869Z,940.01
2018-06-09T01:16:06.862Z,940.01
2018-06-09T01:17:06.995Z,940.00
2018-06-09T01:18:06.878Z,940.02
2018-06-09T01:19:06.891Z,940.07
2018-06-09T01:20:06.904Z,940.05
2018-06-09T01:21:06.928Z,940.05
2018-06-09T01:22:07.077Z,940.10
2018-06-09T01:23:06.939Z,940.06
2018-06-09T01:24:06.976Z,940.08
2018-06-09T01:25:06.956Z,940.04
2018-06-09T01:26:06.976Z,940.02
2018-06-09T01:27:07.132Z,940.03
2018-06-09T01:28:07.000Z,940.02
2018-06-09T01:29:07.039Z,940.04
2018-06-09T01:30:07.014Z,940.06
2018-06-09T01:31:07.044Z,940.04
2018-06-09T01:32:07.152Z,940.03
2018-06-09T01:33:07.057Z,940.06
2018-06-09T01:34:07.094Z,940.08
2018-06-09T01:35:07.077Z,939.99
2018-06-09T01:36:07.087Z,940.06
2018-06-09T01:37:07.264Z,940.11
2018-06-09T01:38:07.135Z,940.06
2018-06-09T01:39:07.150Z,940.04
2018-06-09T01:40:07.140Z,940.05
2018-06-09T01:41:07.173Z,940.06
2018-06-09T01:42:07.154Z,940.07
2018-06-09T01:43:07.192Z,940.06
2018-06-09T01:44:07.180Z,940.05
2018-06-09T01:45:07.214Z,940.10
2018-06-09T01:46:07.215Z,940.04
2018-06-09T01:47:07.238Z,940.03
2018-06-09T01:48:07.405Z,940.01
2018-06-09T01:49:07.262Z,939.99
2018-06-09T01:50:07.274Z,940.00
2018-06-09T01:51:07.263Z,940.01
2018-06-09T01:52:07.298Z,939.99
2018-06-09T01:53:07.409Z,939.97
2018-06-09T01:54:07.290Z,939.97
2018-06-09T01:55:07.307Z,939.99
2018-06-09T01:56:07.313Z,940.03
2018-06-09T01:57:07.331Z,940.01
2018-06-09T01:58:07.443Z,940.00
2018-06-09T01:59:07.347Z,939.98
2018-06-09T02:00:07.360Z,939.98
2018-06-09T02:01:07.400Z,939.98
2018-06-09T02:02:07.411Z,939.96
2018-06-09T02:03:07.576Z,939.97
2018-06-09T02:04:07.408Z,939.92
2018-06-09T02:05:07.445Z,939.93
2018-06-09T02:06:07.458Z,939.93
2018-06-09T02:07:07.441Z,939.90
2018-06-09T02:08:07.488Z,939.90
2018-06-09T02:09:07.492Z,939.89
2018-06-09T02:10:07.474Z,939.95
2018-06-09T02:11:07.486Z,939.97
2018-06-09T02:12:07.497Z,939.94
2018-06-09T02:13:07.609Z,939.95
2018-06-09T02:14:07.525Z,940.00
2018-06-09T02:15:07.529Z,940.01
2018-06-09T02:16:07.549Z,940.00
2018-06-09T02:17:07.552Z,940.01
2018-06-09T02:18:07.692Z,939.98
2018-06-09T02:19:07.583Z,939.95
2018-06-09T02:20:07.597Z,939.98
2018-06-09T02:21:07.601Z,939.95
2018-06-09T02:22:07.632Z,939.95
2018-06-09T02:23:07.773Z,939.97
2018-06-09T02:24:07.663Z,939.98
2018-06-09T02:25:07.676Z,939.98
2018-06-09T02:26:07.656Z,939.94
2018-06-09T02:27:07.670Z,939.95
2018-06-09T02:28:07.829Z,939.98
2018-06-09T02:29:07.693Z,939.98
2018-06-09T02:30:07.735Z,939.96
2018-06-09T02:31:07.730Z,939.92
2018-06-09T02:32:07.752Z,939.87
2018-06-09T02:33:07.919Z,939.92
2018-06-09T02:34:07.773Z,939.87
2018-06-09T02:35:07.769Z,939.90
2018-06-09T02:36:07.799Z,939.87
2018-06-09T02:37:07.810Z,939.84
2018-06-09T02:38:07.945Z,939.84
2018-06-09T02:39:07.805Z,939.82
2018-06-09T02:40:07.827Z,939.82
2018-06-09T02:41:07.840Z,939.75
2018-06-09T02:42:07.867Z,939.75
2018-06-09T02:43:08.003Z,939.74
2018-06-09T02:44:07.892Z,939.71
2018-06-09T02:45:07.901Z,939.68
2018-06-09T02:46:07.889Z,939.71
2018-06-09T02:47:07.901Z,939.70
2018-06-09T02:48:08.017Z,939.69
2018-06-09T02:49:07.919Z,939.66
2018-06-09T02:50:07.940Z,939.70
2018-06-09T02:51:07.945Z,939.72
2018-06-09T02:52:07.952Z,939.70
2018-06-09T02:53:08.070Z,939.72
2018-06-09T02:54:08.017Z,939.71
2018-06-09T02:55:08.014Z,939.74
2018-06-09T02:56:08.029Z,939.74
2018-06-09T02:57:08.005Z,939.72
2018-06-09T02:58:08.185Z,939.75
2018-06-09T02:59:08.034Z,939.72
2018-06-09T03:00:08.052Z,939.71
2018-06-09T03:01:08.083Z,939.71
2018-06-09T03:02:08.093Z,939.72
2018-06-09T03:03:08.085Z,939.75
2018-06-09T03:04:08.215Z,939.73
2018-06-09T03:05:08.129Z,939.75
2018-06-09T03:06:08.112Z,939.79
2018-06-09T03:07:08.151Z,939.81
2018-06-09T03:08:08.153Z,939.77
2018-06-09T03:09:08.327Z,939.75
2018-06-09T03:10:08.156Z,939.77
2018-06-09T03:11:08.180Z,939.72
2018-06-09T03:12:08.212Z,939.75
2018-06-09T03:13:08.198Z,939.77
2018-06-09T03:14:08.307Z,939.78
2018-06-09T03:15:08.220Z,939.74
2018-06-09T03:16:08.231Z,939.76
2018-06-09T03:17:08.233Z,939.68
2018-06-09T03:18:08.254Z,939.70
2018-06-09T03:19:08.440Z,939.69
2018-06-09T03:20:08.285Z,939.73
2018-06-09T03:21:08.283Z,939.71
2018-06-09T03:22:08.302Z,939.70
2018-06-09T03:23:08.334Z,939.75
2018-06-09T03:24:08.471Z,939.72
2018-06-09T03:25:08.331Z,939.68
2018-06-09T03:26:08.357Z,939.65
2018-06-09T03:27:08.356Z,939.65
2018-06-09T03:28:08.390Z,939.63
2018-06-09T03:29:08.524Z,939.63
2018-06-09T03:30:08.388Z,939.64
2018-06-09T03:31:08.423Z,939.61
2018-06-09T03:32:08.410Z,939.59
2018-06-09T03:33:08.430Z,939.58
2018-06-09T03:34:08.581Z,939.57
2018-06-09T03:35:08.441Z,939.60
2018-06-09T03:36:08.476Z,939.62
2018-06-09T03:37:08.460Z,939.66
2018-06-09T03:38:08.472Z,939.61
2018-06-09T03:39:08.597Z,939.60
2018-06-09T03:40:08.497Z,939.61
2018-06-09T03:41:08.506Z,939.55
2018-06-09T03:42:08.519Z,939.60
2018-06-09T03:43:08.551Z,939.63
2018-06-09T03:44:08.694Z,939.59
2018-06-09T03:45:08.581Z,939.60
2018-06-09T03:46:08.565Z,939.59
2018-06-09T03:47:08.574Z,939.59
2018-06-09T03:48:08.611Z,939.59
2018-06-09T03:49:08.752Z,939.59
2018-06-09T03:50:08.634Z,939.59
2018-06-09T03:51:08.632Z,939.61
2018-06-09T03:52:08.659Z,939.64
2018-06-09T03:53:08.654Z,939.61
2018-06-09T03:54:08.762Z,939.61
2018-06-09T03:55:08.664Z,939.63
2018-06-09T03:56:08.704Z,939.67
2018-06-09T03:57:08.688Z,939.63
2018-06-09T03:58:08.697Z,939.63
2018-06-09T03:59:08.812Z,939.59
2018-06-09T04:00:08.744Z,939.60
2018-06-09T04:01:08.739Z,939.59
2018-06-09T04:02:08.792Z,939.63
2018-06-09T04:03:08.781Z,939.62
2018-06-09T04:04:08.919Z,939.63
2018-06-09T04:05:08.780Z,939.55
2018-06-09T04:06:08.785Z,939.56
2018-06-09T04:07:08.824Z,939.52
2018-06-09T04:08:08.828Z,939.58
2018-06-09T04:09:08.969Z,939.58
2018-06-09T04:10:08.830Z,939.57
2018-06-09T04:11:08.834Z,939.54
2018-06-09T04:12:08.865Z,939.54
2018-06-09T04:13:08.857Z,939.56
2018-06-09T04:14:09.025Z,939.52
2018-06-09T04:15:08.888Z,939.53
2018-06-09T04:16:08.892Z,939.45
2018-06-09T04:17:08.934Z,939.49
2018-06-09T04:18:08.948Z,939.48
2018-06-09T04:19:09.039Z,939.47
2018-06-09T04:20:08.967Z,939.49
2018-06-09T04:21:08.975Z,939.47
2018-06-09T04:22:08.986Z,939.45
2018-06-09T04:23:09.000Z,939.46
2018-06-09T04:24:09.145Z,939.48
2018-06-09T04:25:08.994Z,939.45
2018-06-09T04:26:09.009Z,939.45
2018-06-09T04:27:09.021Z,939.50
2018-06-09T04:28:09.055Z,939.44
2018-06-09T04:29:09.053Z,939.42
2018-06-09T04:30:09.200Z,939.41
2018-06-09T04:31:09.063Z,939.40
2018-06-09T04:32:09.077Z,939.38
2018-06-09T04:33:09.083Z,939.35
2018-06-09T04:34:09.099Z,939.34
2018-06-09T04:35:09.258Z,939.34
2018-06-09T04:36:09.125Z,939.36
2018-06-09T04:37:09.132Z,939.33
2018-06-09T04:38:09.173Z,939.33
2018-06-09T04:39:09.152Z,939.33
2018-06-09T04:40:09.296Z,939.31
2018-06-09T04:41:09.202Z,939.29
2018-06-09T04:42:09.187Z,939.29
2018-06-09T04:43:09.215Z,939.27
2018-06-09T04:44:09.211Z,939.28
2018-06-09T04:45:09.346Z,939.29
2018-06-09T04:46:09.236Z,939.27
2018-06-09T04:47:09.249Z,939.25
2018-06-09T04:48:09.281Z,939.24
2018-06-09T04:49:09.289Z,939.21
2018-06-09T04:50:09.400Z,939.21
2018-06-09T04:51:09.294Z,939.23
2018-06-09T04:52:09.329Z,939.23
2018-06-09T04:53:09.309Z,939.20
2018-06-09T04:54:09.347Z,939.20
2018-06-09T04:55:09.482Z,939.21
2018-06-09T04:56:09.368Z,939.19
2018-06-09T04:57:09.354Z,939.16
2018-06-09T04:58:09.371Z,939.13
2018-06-09T04:59:09.380Z,939.12
2018-06-09T05:00:09.511Z,939.10
2018-06-09T05:01:09.428Z,939.08
2018-06-09T05:02:09.412Z,939.07
2018-06-09T05:03:09.432Z,939.05
2018-06-09T05:04:09.459Z,939.02
2018-06-09T05:05:09.554Z,939.05
2018-06-09T05:06:09.484Z,939.03
2018-06-09T05:07:09.502Z,938.99
2018-06-09T05:08:09.478Z,939.00
2018-06-09T05:09:09.517Z,938.97
2018-06-09T05:10:09.647Z,938.92
2018-06-09T05:11:09.510Z,938.92
2018-06-09T05:12:09.553Z,938.90
2018-06-09T05:13:09.557Z,938.86
2018-06-09T05:14:09.568Z,938.86
2018-06-09T05:15:09.704Z,938.86
2018-06-09T05:16:09.575Z,938.86
2018-06-09T05:17:09.586Z,938.86
2018-06-09T05:18:09.588Z,938.80
2018-06-09T05:19:09.630Z,938.82
2018-06-09T05:20:09.721Z,938.81
2018-06-09T05:21:09.628Z,938.79
2018-06-09T05:22:09.661Z,938.77
2018-06-09T05:23:09.670Z,938.77
2018-06-09T05:24:09.657Z,938.78
2018-06-09T05:25:09.817Z,938.74
2018-06-09T05:26:09.685Z,938.74
2018-06-09T05:27:09.692Z,938.70
2018-06-09T05:28:09.699Z,938.72
2018-06-09T05:29:09.713Z,938.73
2018-06-09T05:30:09.828Z,938.71
2018-06-09T05:31:09.758Z,938.70
2018-06-09T05:32:09.759Z,938.75
2018-06-09T05:33:09.759Z,938.69
2018-06-09T05:34:09.795Z,938.67
2018-06-09T05:35:09.880Z,938.69
2018-06-09T05:36:09.798Z,938.67
2018-06-09T05:37:09.799Z,938.68
2018-06-09T05:38:09.810Z,938.69
2018-06-09T05:39:09.850Z,938.71
2018-06-09T05:40:09.933Z,938.68
2018-06-09T05:41:09.876Z,938.68
2018-06-09T05:42:09.880Z,938.66
2018-06-09T05:43:09.867Z,938.63
2018-06-09T05:44:09.886Z,938.67
2018-06-09T05:45:10.049Z,938.67
2018-06-09T05:46:09.940Z,938.62
2018-06-09T05:47:09.940Z,938.62
2018-06-09T05:48:09.924Z,938.63
2018-06-09T05:49:09.936Z,938.68
2018-06-09T05:50:10.050Z,938.68
2018-06-09T05:51:09.987Z,938.65
2018-06-09T05:52:09.970Z,938.67
2018-06-09T05:53:09.976Z,938.66
2018-06-09T05:54:09.989Z,938.62
2018-06-09T05:55:10.100Z,938.66
2018-06-09T05:56:10.034Z,938.60
2018-06-09T05:57:10.024Z,938.57
2018-06-09T05:58:10.047Z,938.60
2018-06-09T05:59:10.071Z,938.61
2018-06-09T06:00:10.079Z,938.53
2018-06-09T06:01:10.219Z,938.52
2018-06-09T06:02:10.082Z,938.49
2018-06-09T06:03:10.100Z,938.51
2018-06-09T06:04:10.125Z,938.52
2018-06-09T06:05:10.118Z,938.55
2018-06-09T06:06:10.279Z,938.51
2018-06-09T06:07:10.137Z,938.49
2018-06-09T06:08:10.172Z,938.48
2018-06-09T06:09:10.170Z,938.49
2018-06-09T06:10:10.162Z,938.50
2018-06-09T06:11:10.350Z,938.45
2018-06-09T06:12:10.187Z,938.46
2018-06-09T06:13:10.205Z,938.45
2018-06-09T06:14:10.209Z,938.41
2018-06-09T06:15:10.216Z,938.43
2018-06-09T06:16:10.381Z,938.42
2018-06-09T06:17:10.241Z,938.39
2018-06-09T06:18:10.250Z,938.45
2018-06-09T06:19:10.293Z,938.42
2018-06-09T06:20:10.298Z,938.45
2018-06-09T06:21:10.411Z,938.44
2018-06-09T06:22:10.293Z,938.40
2018-06-09T06:23:10.311Z,938.42
2018-06-09T06:24:10.318Z,938.44
2018-06-09T06:25:10.323Z,938.45
2018-06-09T06:26:10.516Z,938.39
2018-06-09T06:27:10.373Z,938.40
2018-06-09T06:28:10.385Z,938.40
2018-06-09T06:29:10.376Z,938.40
2018-06-09T06:30:10.383Z,938.37
2018-06-09T06:31:10.520Z,938.39
2018-06-09T06:32:10.422Z,938.38
2018-06-09T06:33:10.440Z,938.39
2018-06-09T06:34:10.429Z,938.44
2018-06-09T06:35:10.432Z,938.41
2018-06-09T06:36:10.547Z,938.39
2018-06-09T06:37:10.467Z,938.36
2018-06-09T06:38:10.483Z,938.36
2018-06-09T06:39:10.504Z,938.38
2018-06-09T06:40:10.504Z,938.36
2018-06-09T06:41:10.631Z,938.33
2018-06-09T06:42:10.514Z,938.32
2018-06-09T06:43:10.559Z,938.36
2018-06-09T06:44:10.539Z,938.35
2018-06-09T06:45:10.551Z,938.35
2018-06-09T06:46:10.709Z,938.34
2018-06-09T06:47:10.640Z,938.34
2018-06-09T06:48:10.593Z,938.36
2018-06-09T06:49:10.619Z,938.34
2018-06-09T06:50:10.631Z,938.35
2018-06-09T06:51:10.738Z,938.32
2018-06-09T06:52:10.632Z,938.31
2018-06-09T06:53:10.625Z,938.36
2018-06-09T06:54:10.673Z,938.36
2018-06-09T06:55:10.654Z,938.31
2018-06-09T06:56:10.817Z,938.32
2018-06-09T06:57:10.680Z,938.33
2018-06-09T06:58:10.721Z,938.33
2018-06-09T06:59:10.707Z,938.34
2018-06-09T07:00:10.719Z,938.34
2018-06-09T07:01:10.872Z,938.34
2018-06-09T07:02:10.856Z,938.34
2018-06-09T07:03:10.744Z,938.34
2018-06-09T07:04:10.751Z,938.38
2018-06-09T07:05:10.773Z,938.37
2018-06-09T07:06:10.953Z,938.41
2018-06-09T07:07:10.797Z,938.43
2018-06-09T07:08:10.798Z,938.40
2018-06-09T07:09:10.832Z,938.44
2018-06-09T07:10:10.817Z,938.43
2018-06-09T07:11:10.930Z,938.39
2018-06-09T07:12:10.836Z,938.39
2018-06-09T07:13:10.864Z,938.34
2018-06-09T07:14:10.889Z,938.35
2018-06-09T07:15:10.875Z,938.31
2018-06-09T07:16:10.989Z,938.24
2018-06-09T07:17:10.907Z,938.27
2018-06-09T07:18:10.908Z,938.27
2018-06-09T07:19:10.924Z,938.26
2018-06-09T07:20:10.932Z,938.30
2018-06-09T07:21:11.096Z,938.24
2018-06-09T07:22:11.029Z,938.27
2018-06-09T07:23:10.958Z,938.24
2018-06-09T07:24:10.967Z,938.27
2018-06-09T07:25:11.007Z,938.27
2018-06-09T07:26:10.993Z,938.21
2018-06-09T07:27:11.180Z,938.21
2018-06-09T07:28:11.044Z,938.24
2018-06-09T07:29:11.023Z,938.23
2018-06-09T07:30:11.033Z,938.18
2018-06-09T07:31:11.048Z,938.19
2018-06-09T07:32:11.056Z,938.17
2018-06-09T07:33:11.199Z,938.15
2018-06-09T07:34:11.093Z,938.14
2018-06-09T07:35:11.138Z,938.13
2018-06-09T07:36:11.104Z,938.13
2018-06-09T07:37:11.112Z,938.16
2018-06-09T07:38:11.228Z,938.17
2018-06-09T07:39:11.159Z,938.15
2018-06-09T07:40:11.160Z,938.16
2018-06-09T07:41:11.182Z,938.20
2018-06-09T07:42:11.165Z,938.20
2018-06-09T07:43:11.335Z,938.19
2018-06-09T07:44:11.184Z,938.19
2018-06-09T07:45:11.196Z,938.20
2018-06-09T07:46:11.210Z,938.17
2018-06-09T07:47:11.226Z,938.17
2018-06-09T07:48:11.341Z,938.18
2018-06-09T07:49:11.241Z,938.19
2018-06-09T07:50:11.276Z,938.24
2018-06-09T07:51:11.273Z,938.21
2018-06-09T07:52:11.273Z,938.20
2018-06-09T07:53:11.461Z,938.22
2018-06-09T07:54:11.365Z,938.24
2018-06-09T07:55:11.336Z,938.24
2018-06-09T07:56:11.316Z,938.24
2018-06-09T07:57:11.330Z,938.26
2018-06-09T07:58:11.440Z,938.28
2018-06-09T07:59:11.376Z,938.32
2018-06-09T08:00:11.358Z,938.35
2018-06-09T08:01:11.372Z,938.36
2018-06-09T08:02:11.380Z,938.36
2018-06-09T08:03:11.546Z,938.33
2018-06-09T08:04:11.401Z,938.34
2018-06-09T08:05:11.439Z,938.34
2018-06-09T08:06:11.457Z,938.37
2018-06-09T08:07:11.463Z,938.39
2018-06-09T08:08:11.559Z,938.38
2018-06-09T08:09:11.456Z,938.42
2018-06-09T08:10:11.467Z,938.43
2018-06-09T08:11:11.481Z,938.43
2018-06-09T08:12:11.520Z,938.43
2018-06-09T08:13:11.653Z,938.40
2018-06-09T08:14:11.537Z,938.47
2018-06-09T08:15:11.523Z,938.46
2018-06-09T08:16:11.533Z,938.46
2018-06-09T08:17:11.576Z,938.47
2018-06-09T08:18:11.699Z,938.47
2018-06-09T08:19:11.570Z,938.46
2018-06-09T08:20:11.589Z,938.42
2018-06-09T08:21:11.600Z,938.43
2018-06-09T08:22:11.598Z,938.46
2018-06-09T08:23:11.779Z,938.41
2018-06-09T08:24:11.622Z,938.42
2018-06-09T08:25:11.634Z,938.44
2018-06-09T08:26:11.671Z,938.44
2018-06-09T08:27:11.664Z,938.45
2018-06-09T08:28:11.819Z,938.47
2018-06-09T08:29:11.730Z,938.48
2018-06-09T08:30:11.694Z,938.46
2018-06-09T08:31:11.727Z,938.50
2018-06-09T08:32:11.713Z,938.54
2018-06-09T08:33:11.873Z,938.50
2018-06-09T08:34:11.731Z,938.49
2018-06-09T08:35:11.769Z,938.47
2018-06-09T08:36:11.898Z,938.50
2018-06-09T08:37:11.766Z,938.49
2018-06-09T08:38:11.925Z,938.49
2018-06-09T08:39:11.813Z,938.51
2018-06-09T08:40:11.810Z,938.51
2018-06-09T08:41:11.814Z,938.46
2018-06-09T08:42:11.845Z,938.45
2018-06-09T08:43:11.983Z,938.46
2018-06-09T08:44:11.867Z,938.46
2018-06-09T08:45:11.881Z,938.47
2018-06-09T08:46:11.893Z,938.51
2018-06-09T08:47:11.879Z,938.49
2018-06-09T08:48:12.036Z,938.48
2018-06-09T08:49:11.893Z,938.50
2018-06-09T08:50:11.937Z,938.48
2018-06-09T08:51:11.922Z,938.53
2018-06-09T08:52:11.957Z,938.51
2018-06-09T08:53:11.940Z,938.54
2018-06-09T08:54:12.131Z,938.54
2018-06-09T08:55:11.984Z,938.59
2018-06-09T08:56:12.004Z,938.58
2018-06-09T08:57:12.013Z,938.54
2018-06-09T08:58:12.012Z,938.58
2018-06-09T08:59:12.038Z,938.57
2018-06-09T09:00:12.174Z,938.56
2018-06-09T09:01:12.026Z,938.59
2018-06-09T09:02:12.043Z,938.62
2018-06-09T09:03:12.086Z,938.61
2018-06-09T09:04:12.069Z,938.66
2018-06-09T09:05:12.259Z,938.67
2018-06-09T09:06:12.115Z,938.72
2018-06-09T09:07:12.106Z,938.71
2018-06-09T09:08:12.113Z,938.75
2018-06-09T09:09:12.137Z,938.77
2018-06-09T09:10:12.235Z,938.78
2018-06-09T09:11:12.151Z,938.77
2018-06-09T09:12:12.161Z,938.78
2018-06-09T09:13:12.202Z,938.82
2018-06-09T09:14:12.178Z,938.83
2018-06-09T09:15:12.345Z,938.83
2018-06-09T09:16:12.203Z,938.82
2018-06-09T09:17:12.218Z,938.86
2018-06-09T09:18:12.229Z,938.87
2018-06-09T09:19:12.248Z,938.90
2018-06-09T09:20:12.346Z,938.89
2018-06-09T09:21:12.258Z,938.92
2018-06-09T09:22:12.275Z,938.91
2018-06-09T09:23:12.303Z,938.91
2018-06-09T09:24:12.317Z,938.95
2018-06-09T09:25:12.449Z,938.94
2018-06-09T09:26:12.345Z,938.98
2018-06-09T09:27:12.322Z,938.95
2018-06-09T09:28:12.335Z,938.97
2018-06-09T09:29:12.344Z,938.97
2018-06-09T09:30:12.505Z,938.98
2018-06-09T09:31:12.392Z,938.96
2018-06-09T09:32:12.483Z,938.99
2018-06-09T09:33:12.414Z,938.96
2018-06-09T09:34:12.400Z,938.97
2018-06-09T09:35:12.509Z,938.98
2018-06-09T09:36:12.421Z,938.95
2018-06-09T09:37:12.435Z,938.99
2018-06-09T09:38:12.469Z,938.96
2018-06-09T09:39:12.461Z,938.92
2018-06-09T09:40:12.592Z,938.97
2018-06-09T09:41:12.506Z,938.96
2018-06-09T09:42:12.488Z,938.97
2018-06-09T09:43:12.526Z,939.04
2018-06-09T09:44:12.515Z,939.05
2018-06-09T09:45:12.648Z,939.06
2018-06-09T09:46:12.555Z,939.07
2018-06-09T09:47:12.545Z,939.08
2018-06-09T09:48:12.560Z,939.08
2018-06-09T09:49:12.579Z,939.06
2018-06-09T09:50:12.706Z,939.10
2018-06-09T09:51:12.590Z,939.11
2018-06-09T09:52:12.605Z,939.13
2018-06-09T09:53:12.639Z,939.10
2018-06-09T09:54:12.634Z,939.11
2018-06-09T09:55:12.742Z,939.13
2018-06-09T09:56:12.655Z,939.13
2018-06-09T09:57:12.661Z,939.14
2018-06-09T09:58:12.673Z,939.12
2018-06-09T09:59:12.690Z,939.16
2018-06-09T10:00:12.840Z,939.14
2018-06-09T10:01:12.715Z,939.15
2018-06-09T10:02:12.716Z,939.19
2018-06-09T10:03:12.727Z,939.18
2018-06-09T10:04:12.762Z,939.17
2018-06-09T10:05:12.924Z,939.18
2018-06-09T10:06:12.784Z,939.18
2018-06-09T10:07:12.777Z,939.15
2018-06-09T10:08:12.814Z,939.19
2018-06-09T10:09:12.796Z,939.23
2018-06-09T10:10:12.932Z,939.23
2018-06-09T10:11:12.849Z,939.25
2018-06-09T10:12:12.851Z,939.25
2018-06-09T10:13:12.840Z,939.28
2018-06-09T10:14:12.853Z,939.27
2018-06-09T10:15:12.986Z,939.31
2018-06-09T10:16:12.899Z,939.35
2018-06-09T10:17:12.883Z,939.36
2018-06-09T10:18:12.893Z,939.40
2018-06-09T10:19:12.939Z,939.38
2018-06-09T10:20:13.084Z,939.39
2018-06-09T10:21:12.969Z,939.38
2018-06-09T10:22:12.969Z,939.39
2018-06-09T10:23:12.981Z,939.41
2018-06-09T10:24:12.990Z,939.44
2018-06-09T10:25:12.976Z,939.39
2018-06-09T10:26:13.098Z,939.39
2018-06-09T10:27:13.006Z,939.41
2018-06-09T10:28:13.034Z,939.39
2018-06-09T10:29:13.022Z,939.41
2018-06-09T10:30:13.064Z,939.43
2018-06-09T10:31:13.170Z,939.49
2018-06-09T10:32:13.080Z,939.50
2018-06-09T10:33:13.095Z,939.53
2018-06-09T10:34:13.133Z,939.53
2018-06-09T10:35:13.153Z,939.57
2018-06-09T10:36:13.309Z,939.58
2018-06-09T10:37:13.183Z,939.63
2018-06-09T10:38:13.180Z,939.61
2018-06-09T10:39:13.197Z,939.65
2018-06-09T10:40:13.217Z,939.59
2018-06-09T10:41:13.340Z,939.59
2018-06-09T10:42:13.173Z,939.56
2018-06-09T10:43:13.183Z,939.59
2018-06-09T10:44:13.195Z,939.58
2018-06-09T10:45:13.251Z,939.59
2018-06-09T10:46:13.370Z,939.58
2018-06-09T10:47:13.228Z,939.61
2018-06-09T10:48:13.241Z,939.58
2018-06-09T10:49:13.258Z,939.60
2018-06-09T10:50:13.267Z,939.62
2018-06-09T10:51:13.379Z,939.66
2018-06-09T10:52:13.310Z,939.66
2018-06-09T10:53:13.322Z,939.65
2018-06-09T10:54:13.330Z,939.59
2018-06-09T10:55:13.329Z,939.67
2018-06-09T10:56:13.434Z,939.61
2018-06-09T10:57:13.358Z,939.61
2018-06-09T10:58:13.363Z,939.61
2018-06-09T10:59:13.396Z,939.59
2018-06-09T11:00:13.413Z,939.58
2018-06-09T11:01:13.556Z,939.58
2018-06-09T11:02:13.444Z,939.52
2018-06-09T11:03:13.438Z,939.49
2018-06-09T11:04:13.460Z,939.54
2018-06-09T11:05:13.463Z,939.53
2018-06-09T11:06:13.619Z,939.53
2018-06-09T11:07:13.474Z,939.51
2018-06-09T11:08:13.484Z,939.54
2018-06-09T11:09:13.496Z,939.55
2018-06-09T11:10:13.524Z,939.62
2018-06-09T11:11:13.655Z,939.57
2018-06-09T11:12:13.560Z,939.61
2018-06-09T11:13:13.577Z,939.62
2018-06-09T11:14:13.560Z,939.65
2018-06-09T11:15:13.600Z,939.68
2018-06-09T11:16:13.687Z,939.72
2018-06-09T11:17:13.597Z,939.72
2018-06-09T11:18:13.659Z,939.74
2018-06-09T11:19:13.621Z,939.74
2018-06-09T11:20:13.663Z,939.70
2018-06-09T11:21:13.825Z,939.71
2018-06-09T11:22:13.667Z,939.73
2018-06-09T11:23:13.671Z,939.73
2018-06-09T11:24:13.708Z,939.75
2018-06-09T11:25:13.706Z,939.81
2018-06-09T11:26:13.888Z,939.78
2018-06-09T11:27:13.734Z,939.82
2018-06-09T11:28:13.757Z,939.81
2018-06-09T11:29:13.743Z,939.84
2018-06-09T11:30:13.767Z,939.85
2018-06-09T11:31:13.924Z,939.88
2018-06-09T11:32:13.778Z,939.94
2018-06-09T11:33:13.790Z,939.95
2018-06-09T11:34:13.831Z,940.01
2018-06-09T11:35:13.851Z,940.05
2018-06-09T11:36:13.938Z,940.06
2018-06-09T11:37:13.875Z,940.10
2018-06-09T11:38:13.882Z,940.09
2018-06-09T11:39:13.903Z,940.05
2018-06-09T11:40:13.905Z,940.06
2018-06-09T11:41:14.020Z,940.03
2018-06-09T11:42:13.905Z,940.04
2018-06-09T11:43:13.914Z,940.04
2018-06-09T11:44:13.928Z,940.03
2018-06-09T11:45:13.956Z,940.03
2018-06-09T11:46:13.982Z,940.02
2018-06-09T11:47:14.206Z,940.04
2018-06-09T11:48:13.976Z,940.04
2018-06-09T11:49:13.994Z,940.07
2018-06-09T11:50:14.001Z,940.09
2018-06-09T11:51:14.027Z,940.12
2018-06-09T11:52:14.156Z,940.17
2018-06-09T11:53:14.041Z,940.17
2018-06-09T11:54:14.060Z,940.26
2018-06-09T11:55:14.065Z,940.25
2018-06-09T11:56:14.092Z,940.23
2018-06-09T11:57:14.207Z,940.25
2018-06-09T11:58:14.103Z,940.26
2018-06-09T11:59:14.114Z,940.25
2018-06-09T12:00:14.129Z,940.28
2018-06-09T12:01:14.145Z,940.30
2018-06-09T12:02:14.287Z,940.28
2018-06-09T12:03:14.181Z,940.31
2018-06-09T12:04:14.209Z,940.30
2018-06-09T12:05:14.192Z,940.38
2018-06-09T12:06:14.230Z,940.34
2018-06-09T12:07:14.323Z,940.39
2018-06-09T12:08:14.230Z,940.27
2018-06-09T12:09:14.270Z,940.34
2018-06-09T12:10:14.249Z,940.35
2018-06-09T12:11:14.269Z,940.36
2018-06-09T12:12:14.453Z,940.37
2018-06-09T12:13:14.293Z,940.35
2018-06-09T12:14:14.303Z,940.33
2018-06-09T12:15:14.316Z,940.32
2018-06-09T12:16:14.325Z,940.30
2018-06-09T12:17:14.491Z,940.32
2018-06-09T12:18:14.380Z,940.29
2018-06-09T12:19:14.393Z,940.29
2018-06-09T12:20:14.388Z,940.25
2018-06-09T12:21:14.419Z,940.28
2018-06-09T12:22:14.506Z,940.25
2018-06-09T12:23:14.420Z,940.23
2018-06-09T12:24:14.440Z,940.22
2018-06-09T12:25:14.435Z,940.22
2018-06-09T12:26:14.485Z,940.23
2018-06-09T12:27:14.642Z,940.30
2018-06-09T12:28:14.495Z,940.31